Latest Weather Observations for Smithton

IDT60801

Issued at 5:35 pm EDT Wednesday 26 November 2014 (issued every 30 minutes, with the page automatically refreshed every 10 minutes)

About weather observations | Map of weather stations | Latest weather observations for TAS | Other Formats
Station Details ID: 091292 Name: SMITHTON AERODROME Lat: -40.83 Lon: 145.08 Height: 7.5 m
Data from the previous 72 hours. | See also: Recent months at Smithton
Date/Time
EDT
Temp
°C
App
Temp
°C
Dew
Point
Rel
Hum
%
Delta-T
°C
Wind Press
QNH
hPa
Press
MSL
hPa
Rain
since 9 am
mm
Dir
 
Spd
km/h
Gust
km/h
Spd
kts
Gust
kts
26/05:30pm 14.2 6.7 6.1 58 3.9 SSW 35 52 19 28 1020.3 - 0.0
26/05:00pm 16.4 10.4 8.6 60 4.0 SW 30 44 16 24 1020.2 - 0.0
26/04:30pm 15.1 7.9 9.0 67 3.1 SW 37 50 20 27 1020.1 - 0.0
26/04:00pm 15.1 7.5 7.4 60 3.8 SW 37 50 20 27 1020.0 - 0.0
26/03:30pm 13.9 6.3 7.7 66 3.1 SW 37 50 20 27 1019.9 - 0.0
26/03:00pm 15.2 7.9 7.2 59 3.9 SW 35 46 19 25 1019.7 1019.7 0.0
26/02:30pm 15.7 8.9 7.7 59 4.0 SW 33 48 18 26 1019.4 - 0.0
26/02:00pm 15.9 8.4 7.9 59 4.0 SW 37 50 20 27 1019.4 - 0.0
26/01:30pm 16.3 8.9 6.7 53 4.7 SW 35 44 19 24 1019.3 - 0.0
26/01:00pm 16.8 10.5 8.8 59 4.1 SW 32 41 17 22 1019.2 - 0.0
26/12:30pm 15.7 7.9 6.7 55 4.4 SW 37 46 20 25 1019.1 - 0.0
26/12:24pm 15.3 7.8 6.1 54 4.4 SW 35 54 19 29 1019.1 - 0.0
26/12:00pm 15.6 8.5 6.3 54 4.5 SW 33 46 18 25 1018.9 1018.9 0.0
26/11:30am 15.5 7.9 6.0 53 4.6 WSW 35 50 19 27 1018.6 - 0.0
26/11:00am 15.1 7.4 7.2 59 3.9 SW 37 48 20 26 1018.6 - 0.0
26/10:30am 14.9 7.4 6.2 56 4.2 WSW 35 50 19 27 1018.4 - 0.0
26/10:00am 13.7 6.9 7.0 64 3.3 SW 32 46 17 25 1018.3 - 0.0
26/09:30am 13.9 6.4 8.1 68 2.9 SSW 37 50 20 27 1018.2 - 0.0
26/09:00am 13.9 7.3 7.9 67 3.0 SW 32 43 17 23 1017.7 1017.7 1.0
26/08:30am 13.4 6.9 8.3 71 2.5 WSW 32 43 17 23 1017.5 - 1.0
26/08:00am 13.1 8.7 10.5 84 1.4 WSW 24 33 13 18 1017.2 - 1.0
26/07:30am 12.1 8.3 9.8 86 1.2 SW 20 28 11 15 1016.9 - 1.0
26/07:00am 11.7 7.7 10.6 93 0.6 SW 22 30 12 16 1016.7 - 1.0
26/06:30am 11.2 7.7 10.1 93 0.6 WSW 19 26 10 14 1016.3 - 1.0
26/06:00am 10.8 7.2 10.0 95 0.4 SW 19 24 10 13 1016.0 1016.0 1.0
26/05:30am 11.2 6.9 10.6 96 0.3 SW 24 33 13 18 1015.8 - 1.0
26/05:00am 11.9 5.6 11.1 95 0.4 WSW 35 46 19 25 1015.3 - 1.0
26/04:59am 11.9 5.2 11.1 95 0.4 WSW 37 46 20 25 1015.4 - 1.0
26/04:30am 12.3 8.6 11.4 94 0.5 W 22 32 12 17 1015.0 - 0.6
26/04:00am 12.3 8.6 11.4 94 0.5 W 22 33 12 18 1015.1 - 0.6
26/03:30am 12.3 7.0 11.2 93 0.6 W 30 39 16 21 1015.0 - 0.6
26/03:00am 12.1 7.2 11.2 94 0.5 W 28 37 15 20 1015.1 1015.1 0.6
26/02:30am 12.0 6.9 10.7 92 0.7 W 28 41 15 22 1015.4 - 0.4
26/02:00am 12.2 7.4 10.4 89 0.9 W 26 37 14 20 1015.7 - 0.4
26/01:30am 12.3 7.1 10.2 87 1.1 W 28 41 15 22 1015.8 - 0.4
26/01:00am 12.6 8.0 9.6 82 1.5 W 24 33 13 18 1016.1 - 0.4
26/12:30am 12.4 8.4 9.2 81 1.6 W 20 32 11 17 1016.3 - 0.4
26/12:00am 12.2 7.4 9.0 81 1.6 W 24 32 13 17 1016.6 1016.6 0.4
 
Date/Time
EDT
Temp
°C
App
Temp
°C
Dew
Point
Rel
Hum
%
Delta-T
°C
Wind Press
QNH
hPa
Press
MSL
hPa
Rain
since 9 am
mm
Dir
 
Spd
km/h
Gust
km/h
Spd
kts
Gust
kts
25/11:30pm 12.1 8.1 8.9 81 1.6 W 20 26 11 14 1016.8 - 0.4
25/11:00pm 11.9 8.8 8.7 81 1.6 W 15 24 8 13 1017.1 - 0.4
25/10:30pm 11.6 8.4 8.5 81 1.5 W 15 20 8 11 1017.3 - 0.4
25/10:00pm 11.1 7.4 7.8 80 1.6 W 17 24 9 13 1017.3 - 0.4
25/09:30pm 11.7 8.4 8.2 79 1.7 W 15 24 8 13 1017.2 - 0.4
25/09:00pm 11.7 8.0 8.0 78 1.8 W 17 24 9 13 1017.1 1017.1 0.4
25/08:30pm 11.5 7.1 7.4 76 2.0 W 20 28 11 15 1017.0 - 0.4
25/08:00pm 11.8 6.0 8.1 78 1.8 W 28 39 15 21 1016.8 - 0.4
25/07:30pm 12.6 6.2 6.9 68 2.7 WSW 30 39 16 21 1016.4 - 0.4
25/07:27pm 12.6 5.7 6.6 67 2.9 WSW 32 50 17 27 1016.4 - 0.4
25/07:00pm 13.5 6.1 6.6 63 3.3 WSW 35 43 19 23 1015.9 - 0.4
25/06:30pm 13.7 7.8 7.5 66 3.0 WSW 28 35 15 19 1015.8 - 0.4
25/06:00pm 14.3 8.6 8.5 68 2.9 WSW 28 43 15 23 1015.5 1015.5 0.4
25/05:30pm 14.1 7.3 7.9 66 3.1 WSW 33 43 18 23 1015.5 - 0.4
25/05:00pm 14.3 7.4 8.9 70 2.7 WSW 35 50 19 27 1015.2 - 0.4
25/04:54pm 14.0 8.4 8.8 71 2.6 W 28 50 15 27 1015.0 - 0.4
25/04:30pm 14.1 8.0 9.9 76 2.2 WSW 32 41 17 22 1015.4 - 0.4
25/04:04pm 13.4 7.6 9.5 77 2.0 W 30 48 16 26 1015.3 - 0.4
25/04:00pm 14.8 9.3 9.2 69 2.9 WSW 28 43 15 23 1015.0 - 0.4
25/03:44pm 14.4 8.0 9.4 72 2.6 WSW 33 57 18 31 1014.9 - 0.4
25/03:30pm 14.3 8.1 9.9 75 2.3 WSW 33 46 18 25 1015.0 - 0.4
25/03:25pm 14.0 6.8 10.4 79 1.9 WSW 39 52 21 28 1015.1 - 0.4
25/03:00pm 13.7 7.7 10.1 79 1.9 W 32 50 17 27 1014.8 1014.8 0.4
25/02:30pm 14.6 8.7 10.6 77 2.1 W 32 50 17 27 1014.8 - 0.2
25/02:00pm 14.3 8.5 10.7 79 1.9 W 32 46 17 25 1014.5 - 0.2
25/01:42pm 13.8 7.2 10.0 78 2.0 WSW 35 54 19 29 1014.6 - 0.2
25/01:30pm 15.0 7.4 9.1 68 3.0 W 39 56 21 30 1014.4 - 0.2
25/01:00pm 14.0 6.3 10.2 78 2.0 WSW 41 59 22 32 1014.3 - 0.2
25/12:31pm 14.8 7.4 10.0 73 2.5 W 39 61 21 33 1014.0 - 0.2
25/12:30pm 15.3 8.2 9.7 69 2.9 W 37 52 20 28 1013.9 - 0.2
25/12:00pm 13.7 7.6 11.7 88 1.1 WSW 35 46 19 25 1013.9 1013.9 0.0
25/11:30am 13.9 7.3 10.1 78 2.0 W 35 50 19 27 1013.7 - 0.0
25/11:00am 15.0 9.1 9.1 68 3.0 WSW 30 41 16 22 1013.0 - 0.0
25/10:54am 14.7 8.2 9.1 69 2.9 WSW 33 44 18 24 1013.1 - 0.0
25/10:30am 15.3 8.3 10.1 71 2.7 SW 37 50 20 27 1012.8 - 0.0
25/10:02am 14.9 8.4 8.8 67 3.1 WSW 33 54 18 29 1012.5 - 0.0
25/10:00am 15.3 8.9 9.4 68 3.0 WSW 33 43 18 23 1012.5 - 0.0
25/09:41am 14.5 7.3 9.3 71 2.7 WSW 37 56 20 30 1012.4 - 0.0
25/09:30am 14.2 7.5 9.8 75 2.3 WSW 35 46 19 25 1012.3 - 0.0
25/09:00am 13.2 7.2 10.0 81 1.6 WSW 32 44 17 24 1012.1 1012.1 7.8
25/08:30am 12.4 7.3 10.6 89 0.9 WSW 28 35 15 19 1011.8 - 7.8
25/08:00am 11.4 5.6 9.3 87 1.1 WSW 30 43 16 23 1011.5 - 7.8
25/07:30am 11.9 7.0 10.0 88 1.0 WSW 26 39 14 21 1011.1 - 7.8
25/07:00am 11.2 7.0 9.8 91 0.7 WSW 22 28 12 15 1010.6 - 7.8
25/06:30am 10.6 6.7 9.5 93 0.6 WSW 20 28 11 15 1010.3 - 7.8
25/06:00am 10.1 6.2 9.3 95 0.4 WSW 20 26 11 14 1009.9 1009.9 7.8
25/05:30am 10.5 4.7 9.6 94 0.5 WSW 30 39 16 21 1009.5 - 7.8
25/05:00am 10.4 6.8 9.9 97 0.3 WSW 19 28 10 15 1009.2 - 7.4
25/04:30am 10.4 7.1 9.6 95 0.4 WSW 17 20 9 11 1008.8 - 7.0
25/04:00am 10.4 6.6 9.8 96 0.3 WSW 20 28 11 15 1008.5 - 7.0
25/03:30am 10.3 6.1 9.7 96 0.3 WSW 22 28 12 15 1008.5 - 6.8
25/03:00am 9.6 5.7 8.8 95 0.4 W 19 26 10 14 1008.4 1008.4 6.4
25/02:30am 10.1 4.9 9.0 93 0.5 W 26 37 14 20 1008.6 - 6.4
25/02:00am 10.1 6.2 9.5 96 0.3 W 20 35 11 19 1008.5 - 4.2
25/01:30am 8.6 6.0 7.7 94 0.4 W 11 15 6 8 1008.4 - 3.4
25/01:00am 9.6 5.6 8.4 92 0.6 W 19 26 10 14 1008.7 - 3.4
25/12:30am 10.4 6.6 9.2 92 0.6 W 19 24 10 13 1008.8 - 3.2
25/12:00am 10.2 6.1 8.6 90 0.8 W 20 26 11 14 1008.6 1008.6 3.2
 
Date/Time
EDT
Temp
°C
App
Temp
°C
Dew
Point
Rel
Hum
%
Delta-T
°C
Wind Press
QNH
hPa
Press
MSL
hPa
Rain
since 9 am
mm
Dir
 
Spd
km/h
Gust
km/h
Spd
kts
Gust
kts
24/11:30pm 10.2 4.5 8.3 88 0.9 WNW 28 52 15 28 1008.8 - 3.2
24/11:27pm 10.5 4.8 8.3 86 1.1 WNW 28 52 15 28 1008.8 - 3.2
24/11:00pm 10.4 6.3 8.0 85 1.2 W 19 24 10 13 1008.7 - 3.0
24/10:30pm 10.4 6.7 7.8 84 1.3 W 17 24 9 13 1008.9 - 3.0
24/10:00pm 10.9 6.6 8.0 82 1.4 W 20 26 11 14 1008.8 - 3.0
24/09:30pm 10.8 6.1 7.9 82 1.4 W 22 28 12 15 1008.4 - 3.0
24/09:00pm 10.7 6.3 7.6 81 1.5 W 20 26 11 14 1008.0 1008.0 3.0
24/08:30pm 11.6 7.0 8.1 79 1.7 W 22 28 12 15 1007.7 - 3.0
24/08:00pm 12.4 7.1 8.3 76 2.0 WSW 26 37 14 20 1007.2 - 3.0
24/07:30pm 13.4 9.3 10.0 80 1.8 WSW 22 33 12 18 1006.7 - 3.0
24/07:00pm 13.8 9.6 9.8 77 2.1 WSW 22 32 12 17 1005.9 - 3.0
24/06:30pm 14.5 9.8 10.5 77 2.1 WSW 26 39 14 21 1005.4 - 3.0
24/06:00pm 13.1 7.3 9.5 79 1.8 SW 30 39 16 21 1005.4 1005.4 3.0
24/05:30pm 13.6 9.0 10.9 84 1.4 SW 26 37 14 20 1005.5 - 2.8
24/05:00pm 13.3 9.8 12.2 93 0.6 W 22 28 12 15 1005.4 - 2.8
24/04:30pm 13.3 8.8 12.7 96 0.3 WSW 28 46 15 25 1005.5 - 2.8
24/04:29pm 13.2 8.6 12.4 95 0.4 WSW 28 46 15 25 1005.5 - 2.8
24/04:23pm 13.3 8.5 12.8 97 0.3 WSW 30 41 16 22 1005.7 - 2.8
24/04:00pm 13.8 13.7 13.3 97 0.3 SE 6 7 3 4 1005.2 - 1.4
24/03:30pm 13.6 13.3 13.3 98 0.2 SE 7 11 4 6 1005.6 - 1.4
24/03:00pm 13.6 13.1 12.8 95 0.4 E 7 9 4 5 1006.0 1006.0 1.0
24/02:30pm 14.1 12.6 12.0 87 1.1 ENE 11 17 6 9 1005.9 - 0.6
24/02:00pm 14.4 11.5 12.3 87 1.1 E 19 24 10 13 1006.1 - 0.6
24/01:30pm 15.3 11.6 12.6 84 1.5 ENE 24 30 13 16 1006.4 - 0.6
24/01:00pm 15.7 12.5 13.2 85 1.4 ENE 22 35 12 19 1006.9 - 0.6
24/12:30pm 14.5 11.7 12.7 89 1.0 ENE 19 26 10 14 1007.3 - 0.6
24/12:00pm 14.5 12.3 13.2 92 0.7 E 17 22 9 12 1007.8 1007.8 0.6
24/11:30am 14.3 12.1 13.3 94 0.6 E 17 22 9 12 1008.3 - 0.4
24/11:00am 14.3 12.8 13.0 92 0.7 ENE 13 17 7 9 1008.9 - 0.4
24/10:30am 15.0 12.3 13.0 88 1.1 ENE 19 24 10 13 1008.9 - 0.2
24/10:00am 15.1 13.0 13.6 91 0.8 ENE 17 26 9 14 1009.5 - 0.2
24/09:30am 14.4 11.5 12.8 90 0.9 NE 20 26 11 14 1010.3 - 0.0
24/09:00am 14.2 12.3 13.1 93 0.6 ENE 15 22 8 12 1009.7 1009.7 1.0
24/08:30am 14.0 11.9 13.5 97 0.3 E 17 22 9 12 1009.0 - 1.0
24/08:00am 14.0 13.0 13.5 97 0.3 NE 11 15 6 8 1010.5 - 0.6
24/07:30am 13.9 13.4 13.7 99 0.1 ENE 9 13 5 7 1009.8 - 0.6
24/07:00am 13.4 13.1 13.2 99 0.1 ENE 7 9 4 5 1009.7 - 0.6
24/06:30am 13.7 13.4 13.4 98 0.2 ENE 7 13 4 7 1010.3 - 0.0
24/06:00am 13.8 13.2 13.6 99 0.1 NE 9 13 5 7 1009.8 1009.8 0.0
24/05:30am 14.3 13.4 13.8 97 0.3 NE 11 15 6 8 1009.1 - 0.0
24/05:00am 14.4 13.6 13.9 97 0.3 NE 11 15 6 8 1009.6 - 0.0
24/04:30am 14.6 13.8 14.1 97 0.3 N 11 15 6 8 1010.6 - 0.0
24/04:00am 14.6 13.0 14.0 96 0.3 N 15 19 8 10 1010.7 - 0.0
24/03:30am 14.0 12.1 13.1 94 0.5 N 15 19 8 10 1011.5 - 0.0
24/03:00am 13.6 11.1 13.6 100 0.0 N 19 22 10 12 1011.3 1011.3 0.0
24/02:53am 13.1 12.4 13.1 100 0.0 NW 9 20 5 11 1011.4 - 0.0
24/02:30am 8.1 7.6 8.0 99 0.0 CALM 0 4 0 2 1011.6 - 0.0
24/02:00am 7.5 6.9 7.4 99 0.0 CALM 0 0 0 0 1011.8 - 0.0
24/01:30am 7.6 7.0 7.5 99 0.0 CALM 0 0 0 0 1012.1 - 0.0
24/01:00am 7.8 7.3 7.7 99 0.0 CALM 0 0 0 0 1012.3 - 0.0
24/12:30am 7.7 7.0 7.0 95 0.3 CALM 0 0 0 0 1012.3 - 0.0
24/12:00am 8.8 8.3 8.0 95 0.4 CALM 0 0 0 0 1012.4 1012.4 0.0
 
Date/Time
EDT
Temp
°C
App
Temp
°C
Dew
Point
Rel
Hum
%
Delta-T
°C
Wind Press
QNH
hPa
Press
MSL
hPa
Rain
since 9 am
mm
Dir
 
Spd
km/h
Gust
km/h
Spd
kts
Gust
kts
23/11:30pm 10.5 9.1 9.7 95 0.4 W 7 9 4 5 1012.5 - 0.0
23/11:00pm 10.5 9.3 9.4 93 0.5 W 6 7 3 4 1012.9 - 0.0
23/10:30pm 10.8 9.5 9.1 89 0.8 W 6 7 3 4 1013.2 - 0.0
23/10:00pm 11.7 10.0 9.8 88 1.0 W 9 9 5 5 1012.9 - 0.0
23/09:30pm 11.8 10.4 9.5 86 1.2 W 7 7 4 4 1013.0 - 0.0
23/09:00pm 12.0 9.6 8.8 81 1.6 W 11 13 6 7 1013.1 1013.1 0.0
23/08:30pm 12.7 10.3 8.8 77 2.0 W 11 15 6 8 1013.2 - 0.0
23/08:00pm 13.8 11.4 8.8 72 2.5 W 11 13 6 7 1013.1 - 0.0
23/07:30pm 16.4 13.6 8.4 59 4.1 W 13 17 7 9 1012.9 - 0.0
23/07:00pm 16.6 12.2 7.5 55 4.6 W 20 24 11 13 1012.7 - 0.0
23/06:30pm 18.5 14.2 7.0 47 5.8 W 19 26 10 14 1012.5 - 0.0
23/06:00pm 18.5 13.1 6.4 45 6.0 WSW 24 33 13 18 1012.3 1012.3 0.0

Other Formats:

Comma delimited format used in spreadsheet applications
http://www.bom.gov.au/fwo/IDT60801/IDT60801.94953.axf

JavaScript Object Notation format (JSON) in row-major order
http://www.bom.gov.au/fwo/IDT60801/IDT60801.94953.json